Time;durP1;ratioP1;P1;durP2;ratioP2;P2;SDS_P1;SDS_P2;PMS_P1;PMS_P2;Temp;Humidity;BMP_temperature;BMP_pressure;BME280_temperature;BME280_humidity;BME280_pressure;Samples;Min_cycle;Max_cycle;Signal;HPM_P1;HPM_P2
2021/05/30 00:00:17;;;;;;;16.42;14.93;;;;;20.60;101608.00;;;;2051469;28;20209;-49
2021/05/30 00:01:17;;;;;;;16.50;14.93;;;;;20.60;101607.00;;;;2040143;29;20210;-52
2021/05/30 00:02:18;;;;;;;16.03;14.50;;;;;20.60;101607.00;;;;2040031;29;20312;-51
2021/05/30 00:03:18;;;;;;;16.30;14.80;;;;;20.60;101606.00;;;;2047251;29;20220;-52
2021/05/30 00:04:18;;;;;;;15.70;14.30;;;;;20.60;101615.00;;;;2051916;28;20215;-51
2021/05/30 00:05:19;;;;;;;16.80;15.03;;;;;20.60;101609.00;;;;2055362;28;20212;-52
2021/05/30 00:06:19;;;;;;;17.80;16.10;;;;;20.60;101615.00;;;;2055625;28;20286;-52
2021/05/30 00:07:22;;;;;;;16.87;15.17;;;;;20.60;101615.00;;;;2055712;28;21023;-52
2021/05/30 00:08:23;;;;;;;16.08;14.45;;;;;20.60;101617.00;;;;2055380;28;20212;-51
2021/05/30 00:09:23;;;;;;;16.00;14.50;;;;;20.60;101607.00;;;;2055634;28;20700;-52
2021/05/30 00:10:24;;;;;;;16.10;14.70;;;;;20.60;101613.00;;;;2055555;28;20200;-52
2021/05/30 00:11:24;;;;;;;16.20;14.60;;;;;20.60;101603.00;;;;2054761;28;20306;-52
2021/05/30 00:12:24;;;;;;;16.00;14.40;;;;;20.60;101615.00;;;;2055573;28;20467;-51
2021/05/30 00:13:25;;;;;;;15.17;13.87;;;;;20.60;101614.00;;;;2055568;28;20219;-52
2021/05/30 00:14:25;;;;;;;15.70;14.20;;;;;20.60;101607.00;;;;2055379;28;20291;-52
2021/05/30 00:15:25;;;;;;;15.77;14.20;;;;;20.60;101607.00;;;;2055139;28;20270;-52
2021/05/30 00:16:26;;;;;;;14.73;13.43;;;;;20.60;101608.00;;;;2055483;28;20215;-51
2021/05/30 00:17:27;;;;;;;15.73;14.23;;;;;20.60;101605.00;;;;2055338;28;20216;-50
2021/05/30 00:18:27;;;;;;;15.07;13.67;;;;;20.60;101615.00;;;;2054838;28;20265;-52
2021/05/30 00:19:27;;;;;;;15.03;13.60;;;;;20.60;101599.00;;;;2055345;28;20216;-52
2021/05/30 00:20:28;;;;;;;14.57;13.27;;;;;20.60;101600.00;;;;2047052;29;20216;-51
2021/05/30 00:21:28;;;;;;;14.80;13.40;;;;;20.60;101606.00;;;;2046161;29;20216;-51
2021/05/30 00:22:28;;;;;;;14.50;13.10;;;;;20.60;101603.00;;;;2054447;28;20216;-51
2021/05/30 00:23:29;;;;;;;14.93;13.63;;;;;20.60;101607.00;;;;2055549;28;20291;-50
2021/05/30 00:24:29;;;;;;;14.70;13.27;;;;;20.60;101596.00;;;;2055344;28;20216;-52
2021/05/30 00:25:29;;;;;;;14.50;13.20;;;;;20.60;101602.00;;;;2055276;28;20685;-52
2021/05/30 00:26:30;;;;;;;14.43;13.13;;;;;20.60;101607.00;;;;2055172;28;20315;-49
2021/05/30 00:27:32;;;;;;;14.63;13.33;;;;;20.60;101605.00;;;;2055490;28;20208;-52
2021/05/30 00:28:32;;;;;;;15.15;13.65;;;;;20.60;101604.00;;;;2055150;28;20251;-52
2021/05/30 00:29:33;;;;;;;15.13;13.73;;;;;20.60;101599.00;;;;2052329;28;20577;-52
2021/05/30 00:30:33;;;;;;;14.10;12.53;;;;;20.60;101603.00;;;;2048179;28;20217;-50
2021/05/30 00:31:33;;;;;;;14.73;13.47;;;;;20.60;101605.00;;;;2047026;28;20224;-52
2021/05/30 00:32:34;;;;;;;14.33;12.97;;;;;20.60;101612.00;;;;2038625;29;20213;-52
2021/05/30 00:33:34;;;;;;;14.60;13.10;;;;;20.60;101596.00;;;;2039057;29;20220;-52
2021/05/30 00:34:34;;;;;;;13.93;12.70;;;;;20.60;101592.00;;;;2047563;28;20236;-52
2021/05/30 00:35:35;;;;;;;14.33;13.03;;;;;20.60;101603.00;;;;2047388;28;20224;-52
2021/05/30 00:36:35;;;;;;;14.50;13.10;;;;;20.60;101605.00;;;;2047197;28;20216;-49
2021/05/30 00:37:35;;;;;;;14.20;12.90;;;;;20.60;101605.00;;;;2047376;28;20670;-51
2021/05/30 00:38:36;;;;;;;13.20;12.00;;;;;20.60;101600.00;;;;2047314;28;20746;-52
2021/05/30 00:39:36;;;;;;;14.73;12.27;;;;;20.60;101607.00;;;;2047431;28;20578;-52
2021/05/30 00:40:36;;;;;;;14.20;12.70;;;;;20.60;101600.00;;;;2047324;28;20220;-51
2021/05/30 00:41:37;;;;;;;13.50;12.20;;;;;20.60;101599.00;;;;2052605;28;20226;-51
2021/05/30 00:42:37;;;;;;;13.70;12.50;;;;;20.60;101603.00;;;;2055114;28;20231;-49
2021/05/30 00:43:48;;;;;;;13.90;12.10;;;;;20.60;101597.00;;;;2055189;28;20685;-50
2021/05/30 00:44:48;;;;;;;13.18;11.98;;;;;20.60;101609.00;;;;2055135;28;20270;-51
2021/05/30 00:45:49;;;;;;;12.33;11.13;;;;;20.60;101600.00;;;;2055198;28;20747;-52
2021/05/30 00:46:50;;;;;;;12.63;11.60;;;;;20.60;101603.00;;;;2055147;28;20232;-50
2021/05/30 00:47:51;;;;;;;13.63;12.43;;;;;20.60;101601.00;;;;2054966;28;20240;-52
2021/05/30 00:48:51;;;;;;;12.93;11.80;;;;;20.60;101599.00;;;;2054985;28;20685;-52
2021/05/30 00:49:52;;;;;;;12.60;11.50;;;;;20.60;101597.00;;;;2048867;28;20717;-49
2021/05/30 00:50:52;;;;;;;13.50;12.30;;;;;20.60;101596.00;;;;2047291;28;20224;-51
2021/05/30 00:51:53;;;;;;;12.40;11.30;;;;;20.60;101600.00;;;;2045789;28;20694;-52
2021/05/30 00:52:53;;;;;;;13.03;11.90;;;;;20.60;101595.00;;;;2047210;28;20268;-51
2021/05/30 00:53:53;;;;;;;12.40;11.33;;;;;20.60;101601.00;;;;2047237;28;20560;-52
2021/05/30 00:54:54;;;;;;;11.63;10.63;;;;;20.60;101599.00;;;;2047005;28;20217;-50
2021/05/30 00:55:54;;;;;;;13.77;12.50;;;;;20.60;101605.00;;;;2047261;28;20288;-50
2021/05/30 00:56:54;;;;;;;11.80;10.80;;;;;20.60;101612.00;;;;2032180;29;20222;-51
2021/05/30 00:57:55;;;;;;;13.30;12.10;;;;;20.60;101598.00;;;;2038559;29;20218;-52
2021/05/30 00:58:55;;;;;;;12.60;11.60;;;;;20.50;101599.00;;;;2054759;28;20216;-49
2021/05/30 00:59:55;;;;;;;13.20;11.80;;;;;20.60;101595.00;;;;2054577;28;20228;-49
2021/05/30 01:00:56;;;;;;;12.47;11.17;;;;;20.50;101601.00;;;;2050486;28;20361;-52
2021/05/30 01:01:56;;;;;;;12.50;11.33;;;;;20.60;101606.00;;;;2049329;28;20260;-51
2021/05/30 01:02:56;;;;;;;12.57;11.47;;;;;20.50;101599.00;;;;2047510;28;20224;-51
2021/05/30 01:03:57;;;;;;;12.40;11.20;;;;;20.50;101604.00;;;;2046952;28;20225;-50
2021/05/30 01:04:57;;;;;;;12.17;10.97;;;;;20.50;101601.00;;;;2047036;28;20702;-51
2021/05/30 01:05:57;;;;;;;12.50;11.40;;;;;20.50;101607.00;;;;2047266;28;20224;-50
2021/05/30 01:06:58;;;;;;;14.13;12.87;;;;;20.50;101599.00;;;;2047125;28;20221;-51
2021/05/30 01:07:59;;;;;;;12.15;11.05;;;;;20.50;101605.00;;;;2047112;29;20217;-51
2021/05/30 01:09:01;;;;;;;12.07;10.93;;;;;20.50;101597.00;;;;2046867;28;20572;-51
2021/05/30 01:10:29;;;;;;;11.98;10.88;;;;;20.50;101602.00;;;;2037979;29;20209;-52
2021/05/30 01:11:30;;;;;;;11.70;10.65;;;;;20.50;101597.00;;;;2037712;29;20217;-52
2021/05/30 01:12:30;;;;;;;11.73;10.73;;;;;20.50;101599.00;;;;2042718;28;20316;-51
2021/05/30 01:13:30;;;;;;;11.30;10.40;;;;;20.50;101600.00;;;;2043955;29;20223;-50
2021/05/30 01:14:31;;;;;;;12.17;11.07;;;;;20.50;101596.00;;;;2029894;29;20312;-51
2021/05/30 01:15:32;;;;;;;11.70;10.70;;;;;20.50;101608.00;;;;2037987;29;20221;-52
2021/05/30 01:16:32;;;;;;;12.10;11.00;;;;;20.50;101596.00;;;;2037956;28;20662;-52
2021/05/30 01:17:32;;;;;;;12.53;11.43;;;;;20.50;101595.00;;;;2044348;29;20527;-49
2021/05/30 01:18:33;;;;;;;12.50;11.40;;;;;20.50;101591.00;;;;2036801;29;20209;-51
2021/05/30 01:19:33;;;;;;;11.17;10.17;;;;;20.50;101595.00;;;;2036760;29;20213;-51
2021/05/30 01:20:34;;;;;;;11.40;10.40;;;;;20.50;101591.00;;;;2040421;29;20304;-52
2021/05/30 01:21:34;;;;;;;11.20;10.30;;;;;20.50;101592.00;;;;2045824;28;20968;-52
2021/05/30 01:22:35;;;;;;;10.77;9.87;;;;;20.50;101595.00;;;;2038487;29;20320;-50
2021/05/30 01:23:35;;;;;;;11.77;10.67;;;;;20.50;101604.00;;;;2037237;29;20245;-51
2021/05/30 01:24:36;;;;;;;11.37;10.37;;;;;20.50;101593.00;;;;2046509;29;20793;-51
2021/05/30 01:25:36;;;;;;;10.65;9.73;;;;;20.50;101597.00;;;;2054903;28;20320;-50
2021/05/30 01:26:37;;;;;;;11.60;10.60;;;;;20.50;101601.00;;;;2046325;28;20212;-49
2021/05/30 01:27:38;;;;;;;10.65;9.75;;;;;20.50;101601.00;;;;2045914;28;20217;-51
2021/05/30 01:28:38;;;;;;;11.40;10.40;;;;;20.50;101605.00;;;;2046902;28;20246;-52
2021/05/30 01:29:39;;;;;;;11.40;10.40;;;;;20.50;101605.00;;;;2046712;28;20205;-52
2021/05/30 01:30:40;;;;;;;11.30;10.30;;;;;20.50;101601.00;;;;2046240;28;20307;-52
2021/05/30 01:31:40;;;;;;;10.50;9.60;;;;;20.50;101599.00;;;;2045706;28;20495;-52
2021/05/30 01:32:41;;;;;;;10.83;9.87;;;;;20.50;101593.00;;;;2046027;28;20720;-52
2021/05/30 01:33:41;;;;;;;11.27;10.32;;;;;20.50;101594.00;;;;2044998;28;21841;-51
2021/05/30 01:34:42;;;;;;;10.80;9.90;;;;;20.50;101594.00;;;;2046394;28;20664;-51
2021/05/30 01:35:42;;;;;;;11.37;10.33;;;;;20.50;101592.00;;;;2037722;29;20252;-51
2021/05/30 01:36:43;;;;;;;10.27;9.37;;;;;20.50;101595.00;;;;2037697;29;20737;-52
2021/05/30 01:37:43;;;;;;;11.27;10.30;;;;;20.50;101590.00;;;;2029952;29;20289;-49
2021/05/30 01:38:43;;;;;;;11.30;10.20;;;;;20.50;101591.00;;;;2030023;29;20784;-51
2021/05/30 01:39:44;;;;;;;10.77;9.77;;;;;20.50;101596.00;;;;2046391;28;20275;-52
2021/05/30 01:40:44;;;;;;;11.07;10.10;;;;;20.50;101590.00;;;;2048552;28;20220;-52
2021/05/30 01:41:44;;;;;;;11.20;10.10;;;;;20.50;101590.00;;;;2048700;28;20216;-52
2021/05/30 01:42:46;;;;;;;10.60;9.70;;;;;20.50;101600.00;;;;2048923;28;20337;-52
2021/05/30 01:43:46;;;;;;;10.25;9.35;;;;;20.50;101603.00;;;;2047614;28;20248;-50
2021/05/30 01:44:46;;;;;;;11.10;10.17;;;;;20.50;101594.00;;;;2046275;28;20989;-50
2021/05/30 01:45:47;;;;;;;11.20;10.20;;;;;20.50;101599.00;;;;2046446;28;20638;-51
2021/05/30 01:46:47;;;;;;;10.40;9.50;;;;;20.50;101596.00;;;;2046516;28;20325;-50
2021/05/30 01:47:47;;;;;;;11.00;10.00;;;;;20.50;101605.00;;;;2045967;28;20299;-50
2021/05/30 01:48:48;;;;;;;9.90;9.00;;;;;20.50;101597.00;;;;2037914;29;20988;-51
2021/05/30 01:49:48;;;;;;;10.13;9.23;;;;;20.50;101615.00;;;;2038130;29;20221;-51
2021/05/30 01:50:48;;;;;;;10.40;9.50;;;;;20.50;101602.00;;;;2046794;28;20220;-51
2021/05/30 01:51:49;;;;;;;10.23;9.30;;;;;20.50;101599.00;;;;2046226;28;20271;-51
2021/05/30 01:52:50;;;;;;;10.00;9.20;;;;;20.50;101606.00;;;;2046693;28;20271;-52
2021/05/30 01:54:01;;;;;;;9.50;8.80;;;;;20.50;101607.00;;;;2046697;28;20308;-50
2021/05/30 01:55:01;;;;;;;10.30;9.40;;;;;20.50;101603.00;;;;2046442;28;20495;-51
2021/05/30 01:57:07;;;;;;;10.00;9.20;;;;;20.50;101598.00;;;;2046763;28;20228;-51
2021/05/30 01:58:08;;;;;;;10.38;9.48;;;;;20.50;101598.00;;;;2045120;28;20231;-51
2021/05/30 01:59:08;;;;;;;10.27;9.43;;;;;20.50;101603.00;;;;2029743;29;20596;-49
2021/05/30 02:00:09;;;;;;;10.80;9.90;;;;;20.50;101603.00;;;;2030470;29;20290;-51
2021/05/30 02:01:11;;;;;;;10.43;9.52;;;;;20.50;101604.00;;;;2046000;28;20223;-51
2021/05/30 02:02:11;;;;;;;10.00;9.20;;;;;20.50;101604.00;;;;2038361;29;20594;-52
2021/05/30 02:03:12;;;;;;;11.00;10.00;;;;;20.50;101599.00;;;;2037953;29;20232;-49
2021/05/30 02:04:13;;;;;;;10.00;9.20;;;;;20.50;101603.00;;;;2050919;28;20216;-52
2021/05/30 02:05:13;;;;;;;10.07;9.20;;;;;20.50;101608.00;;;;2054815;28;20808;-51
2021/05/30 02:06:16;;;;;;;9.80;9.00;;;;;20.50;101606.00;;;;2054574;28;20246;-52
2021/05/30 02:07:17;;;;;;;9.75;8.95;;;;;20.50;101603.00;;;;2054673;28;20228;-51
2021/05/30 02:08:17;;;;;;;10.23;9.33;;;;;20.50;101604.00;;;;2054703;28;20304;-50
2021/05/30 02:09:17;;;;;;;9.70;8.90;;;;;20.50;101607.00;;;;2054443;28;20231;-51
2021/05/30 02:10:19;;;;;;;9.90;9.10;;;;;20.50;101601.00;;;;2051908;28;20656;-51
2021/05/30 02:11:19;;;;;;;9.65;8.85;;;;;20.50;101605.00;;;;2047729;28;20225;-51
2021/05/30 02:12:20;;;;;;;10.50;9.40;;;;;20.50;101598.00;;;;2039510;29;20304;-52
2021/05/30 02:13:20;;;;;;;9.70;8.90;;;;;20.50;101597.00;;;;2031400;29;20218;-49
2021/05/30 02:14:21;;;;;;;9.80;9.00;;;;;20.50;101595.00;;;;2037906;29;20229;-50
2021/05/30 02:15:21;;;;;;;9.77;8.97;;;;;20.50;101599.00;;;;2038114;29;20228;-52
2021/05/30 02:16:22;;;;;;;9.80;9.00;;;;;20.50;101602.00;;;;2051654;28;20223;-52
2021/05/30 02:17:23;;;;;;;10.60;9.67;;;;;20.50;101603.00;;;;2054681;28;20227;-49
2021/05/30 02:18:23;;;;;;;9.90;9.00;;;;;20.50;101600.00;;;;2045682;29;20221;-51
2021/05/30 02:19:24;;;;;;;8.90;8.20;;;;;20.50;101604.00;;;;2045943;29;20216;-51
2021/05/30 02:20:37;;;;;;;9.60;8.70;;;;;20.40;101602.00;;;;2054648;28;20215;-49
2021/05/30 02:21:40;;;;;;;9.27;8.57;;;;;20.40;101604.00;;;;2045095;28;20208;-51
2021/05/30 02:22:40;;;;;;;9.90;9.10;;;;;20.40;101606.00;;;;2046169;28;20248;-55
2021/05/30 02:23:40;;;;;;;9.00;8.20;;;;;20.40;101627.00;;;;2054651;28;20259;-50
2021/05/30 02:24:43;;;;;;;9.30;8.50;;;;;20.40;101596.00;;;;2054619;28;20727;-51
2021/05/30 02:25:43;;;;;;;8.98;8.27;;;;;20.40;101607.00;;;;2054557;28;20207;-51
2021/05/30 02:26:44;;;;;;;9.13;8.43;;;;;20.40;101600.00;;;;2054551;28;20212;-51
2021/05/30 02:27:44;;;;;;;9.13;8.43;;;;;20.40;101616.00;;;;2054101;28;20220;-52
2021/05/30 02:28:45;;;;;;;9.07;8.27;;;;;20.40;101609.00;;;;2037655;29;20784;-50
2021/05/30 02:29:45;;;;;;;9.70;8.80;;;;;20.40;101601.00;;;;2038113;29;20723;-51
2021/05/30 02:30:45;;;;;;;8.93;8.13;;;;;20.40;101604.00;;;;2054531;28;20243;-52
2021/05/30 02:31:46;;;;;;;9.10;8.30;;;;;20.40;101602.00;;;;2054018;28;20235;-52
2021/05/30 02:32:46;;;;;;;9.50;8.70;;;;;20.40;101593.00;;;;2054166;28;20279;-52
2021/05/30 02:33:46;;;;;;;8.70;8.00;;;;;20.40;101600.00;;;;2054567;28;20230;-49
2021/05/30 02:34:47;;;;;;;8.30;7.70;;;;;20.40;101596.00;;;;2054647;28;20761;-50
2021/05/30 02:35:47;;;;;;;8.77;8.07;;;;;20.40;101600.00;;;;2054548;28;20255;-52
2021/05/30 02:36:48;;;;;;;9.00;8.30;;;;;20.40;101598.00;;;;2054364;28;20219;-51
2021/05/30 02:37:48;;;;;;;8.60;8.00;;;;;20.40;101597.00;;;;2054565;28;20215;-52
2021/05/30 02:38:48;;;;;;;9.17;8.47;;;;;20.40;101596.00;;;;2054500;28;20299;-51
2021/05/30 02:39:49;;;;;;;8.90;8.00;;;;;20.40;101594.00;;;;2054129;28;20212;-50
2021/05/30 02:40:49;;;;;;;9.10;8.40;;;;;20.40;101600.00;;;;2050813;28;20217;-50
2021/05/30 02:41:50;;;;;;;9.27;8.53;;;;;20.40;101599.00;;;;2046079;28;20682;-51
2021/05/30 02:42:50;;;;;;;8.67;7.97;;;;;20.40;101598.00;;;;2046231;28;20291;-52
2021/05/30 02:43:50;;;;;;;8.80;8.10;;;;;20.40;101595.00;;;;2046219;28;20216;-51
2021/05/30 02:44:51;;;;;;;8.80;8.00;;;;;20.40;101600.00;;;;2046340;28;20219;-52
2021/05/30 02:45:51;;;;;;;9.30;8.60;;;;;20.40;101604.00;;;;2046509;28;20216;-49
2021/05/30 02:46:51;;;;;;;8.93;8.20;;;;;20.40;101603.00;;;;2046428;29;20277;-51
2021/05/30 02:47:52;;;;;;;8.87;8.07;;;;;20.40;101601.00;;;;2046301;28;20212;-51
2021/05/30 02:48:52;;;;;;;9.20;8.37;;;;;20.40;101599.00;;;;2046507;28;20406;-51
2021/05/30 02:49:52;;;;;;;8.67;7.97;;;;;20.40;101602.00;;;;2046499;28;20895;-51
2021/05/30 02:50:59;;;;;;;8.80;8.10;;;;;20.30;101605.00;;;;2046294;28;20279;-50
2021/05/30 02:52:00;;;;;;;9.27;8.57;;;;;20.40;101599.00;;;;2051341;28;20278;-51
2021/05/30 02:53:00;;;;;;;8.43;7.83;;;;;20.40;101601.00;;;;2054084;28;20211;-52
2021/05/30 02:54:01;;;;;;;9.20;8.50;;;;;20.40;101604.00;;;;2054233;28;20459;-51
2021/05/30 02:55:01;;;;;;;8.80;8.10;;;;;20.40;101594.00;;;;2045741;29;20303;-48
2021/05/30 02:56:02;;;;;;;9.03;8.33;;;;;20.40;101601.00;;;;2045601;29;20216;-50
2021/05/30 02:57:02;;;;;;;8.67;7.90;;;;;20.40;101596.00;;;;2054293;28;20306;-52
2021/05/30 02:58:03;;;;;;;8.33;7.63;;;;;20.40;101601.00;;;;2054298;28;20588;-52
2021/05/30 02:59:03;;;;;;;8.17;7.57;;;;;20.40;101599.00;;;;2054462;28;20269;-52
2021/05/30 03:00:06;;;;;;;8.97;8.27;;;;;20.40;101605.00;;;;2054178;28;20212;-49
2021/05/30 03:01:06;;;;;;;8.98;8.18;;;;;20.40;101603.00;;;;2053375;28;20219;-52
2021/05/30 03:02:06;;;;;;;7.57;6.97;;;;;20.40;101605.00;;;;2054436;28;20294;-51
2021/05/30 03:03:07;;;;;;;8.50;7.80;;;;;20.40;101603.00;;;;2045429;28;20220;-52
2021/05/30 03:04:07;;;;;;;8.80;8.10;;;;;20.40;101599.00;;;;2045893;29;20216;-51
2021/05/30 03:05:08;;;;;;;8.33;7.73;;;;;20.40;101604.00;;;;2054367;28;20220;-51
2021/05/30 03:06:08;;;;;;;8.18;7.47;;;;;20.40;101604.00;;;;2054208;28;20388;-51
2021/05/30 03:07:09;;;;;;;8.80;8.00;;;;;20.40;101601.00;;;;2054395;28;20216;-51
2021/05/30 03:08:09;;;;;;;8.00;7.40;;;;;20.40;101598.00;;;;2050010;28;20223;-52
2021/05/30 03:09:09;;;;;;;8.20;7.50;;;;;20.40;101598.00;;;;2054349;28;20259;-51
2021/05/30 03:10:10;;;;;;;8.03;7.33;;;;;20.40;101601.00;;;;2053914;28;20216;-49
2021/05/30 03:11:10;;;;;;;9.00;8.30;;;;;20.40;101596.00;;;;2048782;28;20208;-51
2021/05/30 03:12:11;;;;;;;8.93;8.10;;;;;20.40;101604.00;;;;2048998;28;20328;-52
2021/05/30 03:13:11;;;;;;;8.60;7.90;;;;;20.40;101599.00;;;;2049001;28;20626;-52
2021/05/30 03:14:12;;;;;;;8.13;7.53;;;;;20.40;101597.00;;;;2046371;28;20243;-51
2021/05/30 03:15:13;;;;;;;8.40;7.70;;;;;20.40;101606.00;;;;2037948;29;20269;-50
2021/05/30 03:16:13;;;;;;;8.23;7.63;;;;;20.40;101599.00;;;;2037706;29;20220;-58
2021/05/30 03:17:13;;;;;;;7.30;6.70;;;;;20.40;101600.00;;;;2046176;28;21032;-51
2021/05/30 03:18:14;;;;;;;7.83;7.23;;;;;20.40;101602.00;;;;2046180;28;20264;-51
2021/05/30 03:19:14;;;;;;;8.20;7.60;;;;;20.30;101613.00;;;;2046277;28;20205;-49
2021/05/30 03:20:15;;;;;;;7.70;7.07;;;;;20.40;101605.00;;;;2046389;28;20216;-51
2021/05/30 03:21:17;;;;;;;8.07;7.47;;;;;20.40;101599.00;;;;2045529;28;20224;-51
2021/05/30 03:22:20;;;;;;;8.88;8.07;;;;;20.40;101607.00;;;;2046178;28;20551;-51
2021/05/30 03:23:20;;;;;;;8.27;7.68;;;;;20.40;101613.00;;;;2046357;28;20208;-50
2021/05/30 03:24:20;;;;;;;8.10;7.50;;;;;20.40;101600.00;;;;2045803;29;20213;-51
2021/05/30 03:25:21;;;;;;;8.23;7.63;;;;;20.40;101604.00;;;;2045667;29;20240;-50
2021/05/30 03:26:21;;;;;;;8.10;7.50;;;;;20.30;101606.00;;;;2046156;28;20209;-52
2021/05/30 03:27:21;;;;;;;8.30;7.70;;;;;20.40;101614.00;;;;2046158;28;20217;-52
2021/05/30 03:28:22;;;;;;;7.73;7.13;;;;;20.40;101613.00;;;;2046029;28;20702;-52
2021/05/30 03:29:22;;;;;;;8.33;7.63;;;;;20.40;101603.00;;;;2045754;28;20216;-52
2021/05/30 03:30:23;;;;;;;8.07;7.43;;;;;20.40;101601.00;;;;2045614;28;20208;-51
2021/05/30 03:31:23;;;;;;;8.43;7.80;;;;;20.30;101597.00;;;;2045137;28;20213;-51
2021/05/30 03:32:23;;;;;;;7.83;7.13;;;;;20.40;101612.00;;;;2045210;28;20551;-52
2021/05/30 03:33:24;;;;;;;8.70;8.00;;;;;20.40;101603.00;;;;2045679;28;20216;-52
2021/05/30 03:34:24;;;;;;;8.43;7.77;;;;;20.40;101607.00;;;;2044695;28;20662;-52
2021/05/30 03:35:24;;;;;;;7.80;7.20;;;;;20.30;101607.00;;;;2046083;28;20213;-49
2021/05/30 03:36:26;;;;;;;7.87;7.23;;;;;20.30;101605.00;;;;2045602;28;20205;-50
2021/05/30 03:37:27;;;;;;;7.85;7.22;;;;;20.30;101614.00;;;;2045819;28;20212;-50
2021/05/30 03:38:29;;;;;;;7.90;7.30;;;;;20.30;101612.00;;;;2045678;28;20221;-51
2021/05/30 03:39:32;;;;;;;7.80;7.10;;;;;20.30;101614.00;;;;2045523;28;20217;-52
2021/05/30 03:41:42;;;;;;;8.27;7.55;;;;;20.30;101629.00;;;;2046858;28;20225;-50
2021/05/30 03:42:48;;;;;;;8.18;7.57;;;;;20.30;101605.00;;;;2047543;28;20220;-51
2021/05/30 03:43:48;;;;;;;8.95;8.25;;;;;20.30;101614.00;;;;2046469;28;20279;-51
2021/05/30 03:44:49;;;;;;;8.60;7.87;;;;;20.30;101613.00;;;;2045377;28;20295;-50
2021/05/30 03:45:49;;;;;;;8.77;8.07;;;;;20.30;101616.00;;;;2041548;29;20263;-50
2021/05/30 03:46:49;;;;;;;8.37;7.77;;;;;20.30;101619.00;;;;2045628;28;20315;-51
2021/05/30 03:47:50;;;;;;;7.87;7.27;;;;;20.30;101623.00;;;;2045139;28;20223;-51
2021/05/30 03:48:50;;;;;;;8.90;8.20;;;;;20.30;101618.00;;;;2045538;28;20227;-51
2021/05/30 03:49:51;;;;;;;7.77;7.17;;;;;20.30;101619.00;;;;2046130;28;20308;-51
2021/05/30 03:50:51;;;;;;;8.53;7.83;;;;;20.30;101617.00;;;;2045811;28;20637;-50
2021/05/30 03:51:52;;;;;;;7.83;7.23;;;;;20.30;101620.00;;;;2044782;28;20757;-49
2021/05/30 03:52:52;;;;;;;8.37;7.67;;;;;20.30;101617.00;;;;2045426;28;20587;-51
2021/05/30 03:53:53;;;;;;;8.30;7.60;;;;;20.30;101620.00;;;;2045739;28;20216;-51
2021/05/30 03:54:53;;;;;;;7.80;7.20;;;;;20.30;101618.00;;;;2045774;28;20220;-50
2021/05/30 03:55:54;;;;;;;8.20;7.60;;;;;20.30;101617.00;;;;2045470;28;20283;-49
2021/05/30 03:56:54;;;;;;;7.70;7.10;;;;;20.30;101625.00;;;;2045590;28;20217;-50
2021/05/30 03:57:54;;;;;;;7.77;7.17;;;;;20.30;101617.00;;;;2041465;29;20225;-51
2021/05/30 03:58:56;;;;;;;8.30;7.60;;;;;20.30;101619.00;;;;2044849;29;20257;-51
2021/05/30 03:59:58;;;;;;;7.68;7.05;;;;;20.40;101618.00;;;;2054137;28;20282;-51
2021/05/30 04:00:58;;;;;;;7.82;7.22;;;;;20.30;101609.00;;;;2047205;28;20239;-49
2021/05/30 04:01:59;;;;;;;8.37;7.67;;;;;20.40;101619.00;;;;2046290;28;20216;-50
2021/05/30 04:02:59;;;;;;;8.23;7.60;;;;;20.30;101617.00;;;;2046034;28;20221;-51
2021/05/30 04:04:00;;;;;;;7.90;7.30;;;;;20.30;101621.00;;;;2047279;28;20267;-50
2021/05/30 04:05:00;;;;;;;7.40;6.90;;;;;20.30;101620.00;;;;2047597;28;20212;-51
2021/05/30 04:06:00;;;;;;;7.30;6.70;;;;;20.30;101620.00;;;;2047689;28;20240;-50
2021/05/30 04:07:01;;;;;;;7.53;7.03;;;;;20.30;101619.00;;;;2047512;28;20228;-49
2021/05/30 04:08:01;;;;;;;7.37;6.87;;;;;20.30;101616.00;;;;2046918;28;20217;-51
2021/05/30 04:09:01;;;;;;;7.40;6.87;;;;;20.30;101624.00;;;;2046868;29;20212;-52
2021/05/30 04:10:10;;;;;;;6.80;6.30;;;;;20.30;101607.00;;;;2047809;28;20626;-49
2021/05/30 04:11:10;;;;;;;7.55;7.05;;;;;20.30;101616.00;;;;2047855;28;20224;-51
2021/05/30 04:12:10;;;;;;;7.60;7.00;;;;;20.30;101618.00;;;;2048284;28;20232;-52
2021/05/30 04:13:11;;;;;;;7.93;7.33;;;;;20.30;101612.00;;;;2046661;28;20874;-52
2021/05/30 04:14:12;;;;;;;7.70;7.10;;;;;20.30;101615.00;;;;2047491;28;20340;-51
2021/05/30 04:15:13;;;;;;;7.97;7.27;;;;;20.30;101612.00;;;;2047656;28;20220;-51
2021/05/30 04:16:13;;;;;;;7.82;7.22;;;;;20.30;101605.00;;;;2047161;28;20217;-52
2021/05/30 04:17:13;;;;;;;7.87;7.17;;;;;20.30;101607.00;;;;2052398;28;20557;-52
2021/05/30 04:18:14;;;;;;;7.60;7.00;;;;;20.30;101609.00;;;;2054561;28;20255;-49
2021/05/30 04:19:14;;;;;;;8.50;7.77;;;;;20.30;101600.00;;;;2054691;28;20220;-51
2021/05/30 04:20:16;;;;;;;7.30;6.80;;;;;20.30;101598.00;;;;2046259;28;20304;-52
2021/05/30 04:21:17;;;;;;;7.50;6.95;;;;;20.30;101603.00;;;;2044960;28;20215;-56
2021/05/30 04:22:17;;;;;;;7.53;6.93;;;;;20.30;101596.00;;;;2054690;28;20703;-55
2021/05/30 04:23:18;;;;;;;8.30;7.60;;;;;20.30;101614.00;;;;2054494;28;20212;-55
2021/05/30 04:24:18;;;;;;;7.90;7.30;;;;;20.40;101606.00;;;;2054725;28;20310;-51
2021/05/30 04:25:18;;;;;;;7.40;6.80;;;;;20.40;101604.00;;;;2054597;28;20220;-54
2021/05/30 04:26:19;;;;;;;9.20;7.43;;;;;20.40;101607.00;;;;2054701;28;20219;-53
2021/05/30 04:27:19;;;;;;;8.60;7.90;;;;;20.30;101599.00;;;;2054868;28;20215;-54
2021/05/30 04:28:19;;;;;;;7.93;7.30;;;;;20.30;101608.00;;;;2054691;28;20749;-54
2021/05/30 04:29:20;;;;;;;7.50;6.90;;;;;20.30;101609.00;;;;2054614;28;21241;-54
2021/05/30 04:30:20;;;;;;;8.07;7.27;;;;;20.30;101607.00;;;;2055020;28;20227;-54
2021/05/30 04:31:21;;;;;;;7.83;7.23;;;;;20.30;101614.00;;;;2053998;28;20219;-54
2021/05/30 04:32:21;;;;;;;7.20;6.63;;;;;20.30;101619.00;;;;2054870;28;20235;-51
2021/05/30 04:33:22;;;;;;;7.07;6.40;;;;;20.30;101620.00;;;;2054472;28;20274;-51
2021/05/30 04:34:22;;;;;;;7.40;6.83;;;;;20.30;101621.00;;;;2054870;28;20229;-51
2021/05/30 04:35:22;;;;;;;6.87;6.30;;;;;20.30;101624.00;;;;2054840;28;20223;-51
2021/05/30 04:36:23;;;;;;;6.60;6.10;;;;;20.30;101624.00;;;;2054810;28;20216;-51
2021/05/30 04:37:23;;;;;;;7.20;6.50;;;;;20.30;101622.00;;;;2054593;28;20670;-51
2021/05/30 04:38:23;;;;;;;8.30;7.50;;;;;20.40;101622.00;;;;2053837;28;20222;-51
2021/05/30 04:39:26;;;;;;;13.43;10.67;;;;;20.40;101618.00;;;;2054345;28;20215;-51
2021/05/30 04:40:26;;;;;;;13.95;12.23;;;;;20.50;101617.00;;;;2052655;28;20224;-50
2021/05/30 04:41:27;;;;;;;16.53;14.70;;;;;20.40;101613.00;;;;2049765;28;21026;-51
2021/05/30 04:42:27;;;;;;;20.33;18.23;;;;;20.40;101625.00;;;;2050455;28;20575;-51
2021/05/30 04:43:27;;;;;;;17.90;15.20;;;;;20.50;101617.00;;;;2050018;28;20220;-51
2021/05/30 04:44:28;;;;;;;18.47;16.27;;;;;20.50;101612.00;;;;2045957;28;20299;-51
2021/05/30 04:45:28;;;;;;;22.17;16.53;;;;;20.50;101620.00;;;;2047400;28;20356;-52
2021/05/30 04:46:29;;;;;;;17.10;15.30;;;;;20.50;101617.00;;;;2047297;28;20276;-51
2021/05/30 04:47:29;;;;;;;22.97;17.57;;;;;20.50;101627.00;;;;2047369;28;20220;-51
2021/05/30 04:48:29;;;;;;;18.00;15.33;;;;;20.40;101624.00;;;;2047312;28;20212;-51
2021/05/30 04:49:30;;;;;;;17.17;15.37;;;;;20.50;101621.00;;;;2047184;28;20253;-51
2021/05/30 04:50:30;;;;;;;19.27;14.53;;;;;20.50;101619.00;;;;2047334;28;20219;-51
2021/05/30 04:51:30;;;;;;;16.63;14.23;;;;;20.50;101617.00;;;;2048342;28;20220;-51
2021/05/30 04:52:31;;;;;;;14.73;13.33;;;;;20.50;101625.00;;;;2054885;28;20219;-52
2021/05/30 04:53:43;;;;;;;15.87;12.40;;;;;20.60;101626.00;;;;2053223;28;20340;-50
2021/05/30 04:54:44;;;;;;;14.10;12.63;;;;;20.60;101631.00;;;;2055208;28;20250;-51
2021/05/30 04:55:44;;;;;;;14.20;12.80;;;;;20.60;101620.00;;;;2055258;28;20220;-51
2021/05/30 04:56:45;;;;;;;12.80;11.60;;;;;20.50;101620.00;;;;2055123;28;20681;-51
2021/05/30 04:57:45;;;;;;;12.87;11.63;;;;;20.60;101622.00;;;;2055135;28;20716;-51
2021/05/30 04:58:45;;;;;;;15.67;12.73;;;;;20.50;101624.00;;;;2055054;28;20265;-50
2021/05/30 04:59:46;;;;;;;13.33;12.03;;;;;20.60;101621.00;;;;2055123;28;20260;-51